sensor_id;sensor_type;location;lat;lon;timestamp;P1;durP1;ratioP1;P2;durP2;ratioP2
76127;SDS011;64873;50.102;14.434;2023-07-13T00:02:06;6.25;;;3.90;;
76127;SDS011;64873;50.102;14.434;2023-07-13T00:04:32;5.60;;;4.07;;
76127;SDS011;64873;50.102;14.434;2023-07-13T00:06:57;6.78;;;3.60;;
76127;SDS011;64873;50.102;14.434;2023-07-13T00:09:23;7.40;;;3.85;;
76127;SDS011;64873;50.102;14.434;2023-07-13T00:11:52;5.43;;;3.80;;
76127;SDS011;64873;50.102;14.434;2023-07-13T00:14:19;7.47;;;3.63;;
76127;SDS011;64873;50.102;14.434;2023-07-13T00:16:45;8.73;;;4.07;;
76127;SDS011;64873;50.102;14.434;2023-07-13T00:19:11;7.03;;;3.88;;
76127;SDS011;64873;50.102;14.434;2023-07-13T00:21:38;9.15;;;3.80;;
76127;SDS011;64873;50.102;14.434;2023-07-13T00:24:05;8.95;;;3.53;;
76127;SDS011;64873;50.102;14.434;2023-07-13T00:26:31;5.15;;;3.55;;
76127;SDS011;64873;50.102;14.434;2023-07-13T00:28:57;8.57;;;3.70;;
76127;SDS011;64873;50.102;14.434;2023-07-13T00:31:23;7.57;;;3.63;;
76127;SDS011;64873;50.102;14.434;2023-07-13T00:33:48;5.38;;;3.70;;
76127;SDS011;64873;50.102;14.434;2023-07-13T00:36:14;9.10;;;3.55;;
76127;SDS011;64873;50.102;14.434;2023-07-13T00:38:39;4.57;;;3.13;;
76127;SDS011;64873;50.102;14.434;2023-07-13T00:41:05;6.03;;;3.78;;
76127;SDS011;64873;50.102;14.434;2023-07-13T00:43:31;7.65;;;3.58;;
76127;SDS011;64873;50.102;14.434;2023-07-13T00:48:42;8.10;;;3.80;;
76127;SDS011;64873;50.102;14.434;2023-07-13T00:51:09;6.53;;;3.60;;
76127;SDS011;64873;50.102;14.434;2023-07-13T00:53:35;7.20;;;3.55;;
76127;SDS011;64873;50.102;14.434;2023-07-13T00:56:01;8.20;;;3.60;;
76127;SDS011;64873;50.102;14.434;2023-07-13T00:58:28;4.72;;;3.65;;
76127;SDS011;64873;50.102;14.434;2023-07-13T01:00:54;5.68;;;2.92;;
76127;SDS011;64873;50.102;14.434;2023-07-13T01:03:19;6.60;;;3.45;;
76127;SDS011;64873;50.102;14.434;2023-07-13T01:05:46;6.57;;;4.10;;
76127;SDS011;64873;50.102;14.434;2023-07-13T01:08:14;11.70;;;3.90;;
76127;SDS011;64873;50.102;14.434;2023-07-13T01:10:41;5.60;;;3.58;;
76127;SDS011;64873;50.102;14.434;2023-07-13T01:13:15;6.82;;;4.03;;
76127;SDS011;64873;50.102;14.434;2023-07-13T01:15:45;6.30;;;3.92;;
76127;SDS011;64873;50.102;14.434;2023-07-13T01:18:14;5.75;;;3.95;;
76127;SDS011;64873;50.102;14.434;2023-07-13T01:23:20;6.50;;;4.28;;
76127;SDS011;64873;50.102;14.434;2023-07-13T01:25:46;6.85;;;3.85;;
76127;SDS011;64873;50.102;14.434;2023-07-13T01:28:12;6.70;;;3.97;;
76127;SDS011;64873;50.102;14.434;2023-07-13T01:30:38;8.27;;;3.65;;
76127;SDS011;64873;50.102;14.434;2023-07-13T01:33:05;7.03;;;3.80;;
76127;SDS011;64873;50.102;14.434;2023-07-13T01:35:32;6.53;;;3.70;;
76127;SDS011;64873;50.102;14.434;2023-07-13T01:37:58;6.20;;;3.85;;
76127;SDS011;64873;50.102;14.434;2023-07-13T01:40:25;5.82;;;3.53;;
76127;SDS011;64873;50.102;14.434;2023-07-13T01:42:50;7.82;;;3.80;;
76127;SDS011;64873;50.102;14.434;2023-07-13T01:45:16;8.27;;;3.97;;
76127;SDS011;64873;50.102;14.434;2023-07-13T01:47:41;5.68;;;3.70;;
76127;SDS011;64873;50.102;14.434;2023-07-13T01:50:07;5.82;;;3.63;;
76127;SDS011;64873;50.102;14.434;2023-07-13T01:52:33;7.57;;;3.92;;
76127;SDS011;64873;50.102;14.434;2023-07-13T01:54:58;7.00;;;4.40;;
76127;SDS011;64873;50.102;14.434;2023-07-13T01:57:24;9.45;;;4.20;;
76127;SDS011;64873;50.102;14.434;2023-07-13T01:59:49;5.32;;;3.90;;
76127;SDS011;64873;50.102;14.434;2023-07-13T02:02:14;7.50;;;4.00;;
76127;SDS011;64873;50.102;14.434;2023-07-13T02:04:40;6.57;;;4.25;;
76127;SDS011;64873;50.102;14.434;2023-07-13T02:07:05;6.07;;;4.25;;
76127;SDS011;64873;50.102;14.434;2023-07-13T02:09:31;9.52;;;4.32;;
76127;SDS011;64873;50.102;14.434;2023-07-13T02:11:56;9.05;;;4.40;;
76127;SDS011;64873;50.102;14.434;2023-07-13T02:14:22;8.70;;;4.05;;
76127;SDS011;64873;50.102;14.434;2023-07-13T02:16:47;6.38;;;4.10;;
76127;SDS011;64873;50.102;14.434;2023-07-13T02:19:13;6.55;;;3.97;;
76127;SDS011;64873;50.102;14.434;2023-07-13T02:21:39;6.38;;;4.32;;
76127;SDS011;64873;50.102;14.434;2023-07-13T02:24:04;7.00;;;4.43;;
76127;SDS011;64873;50.102;14.434;2023-07-13T02:26:30;7.88;;;4.30;;
76127;SDS011;64873;50.102;14.434;2023-07-13T02:28:55;7.55;;;4.78;;
76127;SDS011;64873;50.102;14.434;2023-07-13T02:31:21;10.57;;;4.43;;
76127;SDS011;64873;50.102;14.434;2023-07-13T02:33:46;10.27;;;4.75;;
76127;SDS011;64873;50.102;14.434;2023-07-13T02:36:12;6.50;;;4.32;;
76127;SDS011;64873;50.102;14.434;2023-07-13T02:38:39;9.38;;;4.65;;
76127;SDS011;64873;50.102;14.434;2023-07-13T02:41:05;7.40;;;4.90;;
76127;SDS011;64873;50.102;14.434;2023-07-13T02:43:31;7.78;;;4.88;;
76127;SDS011;64873;50.102;14.434;2023-07-13T02:45:58;7.68;;;4.60;;
76127;SDS011;64873;50.102;14.434;2023-07-13T02:48:29;9.63;;;4.90;;
76127;SDS011;64873;50.102;14.434;2023-07-13T02:50:54;6.38;;;4.30;;
76127;SDS011;64873;50.102;14.434;2023-07-13T02:53:20;6.53;;;4.60;;
76127;SDS011;64873;50.102;14.434;2023-07-13T02:55:45;10.07;;;4.78;;
76127;SDS011;64873;50.102;14.434;2023-07-13T02:58:12;6.95;;;4.75;;
76127;SDS011;64873;50.102;14.434;2023-07-13T03:00:41;8.43;;;5.03;;
76127;SDS011;64873;50.102;14.434;2023-07-13T03:03:07;8.25;;;5.70;;
76127;SDS011;64873;50.102;14.434;2023-07-13T03:05:33;6.65;;;4.97;;
76127;SDS011;64873;50.102;14.434;2023-07-13T03:07:58;8.93;;;4.78;;
76127;SDS011;64873;50.102;14.434;2023-07-13T03:10:24;7.57;;;5.10;;
76127;SDS011;64873;50.102;14.434;2023-07-13T03:12:50;7.38;;;5.30;;
76127;SDS011;64873;50.102;14.434;2023-07-13T03:15:15;9.05;;;4.88;;
76127;SDS011;64873;50.102;14.434;2023-07-13T03:17:41;6.82;;;4.75;;
76127;SDS011;64873;50.102;14.434;2023-07-13T03:20:06;10.90;;;4.97;;
76127;SDS011;64873;50.102;14.434;2023-07-13T03:22:32;10.95;;;4.65;;
76127;SDS011;64873;50.102;14.434;2023-07-13T03:24:58;8.90;;;5.18;;
76127;SDS011;64873;50.102;14.434;2023-07-13T03:27:23;8.13;;;4.47;;
76127;SDS011;64873;50.102;14.434;2023-07-13T03:29:49;7.75;;;4.95;;
76127;SDS011;64873;50.102;14.434;2023-07-13T03:32:14;15.02;;;5.10;;
76127;SDS011;64873;50.102;14.434;2023-07-13T03:34:39;6.38;;;4.22;;
76127;SDS011;64873;50.102;14.434;2023-07-13T03:37:05;5.88;;;3.70;;
76127;SDS011;64873;50.102;14.434;2023-07-13T03:39:30;7.25;;;3.85;;
76127;SDS011;64873;50.102;14.434;2023-07-13T03:41:56;5.47;;;3.17;;
76127;SDS011;64873;50.102;14.434;2023-07-13T03:44:21;4.45;;;2.47;;
76127;SDS011;64873;50.102;14.434;2023-07-13T03:46:47;6.13;;;2.38;;
76127;SDS011;64873;50.102;14.434;2023-07-13T03:49:12;4.15;;;2.42;;
76127;SDS011;64873;50.102;14.434;2023-07-13T03:51:38;6.13;;;2.60;;
76127;SDS011;64873;50.102;14.434;2023-07-13T03:54:03;3.00;;;1.95;;
76127;SDS011;64873;50.102;14.434;2023-07-13T03:56:29;3.08;;;1.80;;
76127;SDS011;64873;50.102;14.434;2023-07-13T03:58:55;4.32;;;2.28;;
76127;SDS011;64873;50.102;14.434;2023-07-13T04:01:23;3.20;;;1.83;;
76127;SDS011;64873;50.102;14.434;2023-07-13T04:03:50;3.47;;;1.85;;
76127;SDS011;64873;50.102;14.434;2023-07-13T04:06:16;5.22;;;2.10;;
76127;SDS011;64873;50.102;14.434;2023-07-13T04:08:48;3.47;;;1.70;;
76127;SDS011;64873;50.102;14.434;2023-07-13T04:11:15;5.22;;;1.65;;
76127;SDS011;64873;50.102;14.434;2023-07-13T04:13:41;2.35;;;1.70;;
76127;SDS011;64873;50.102;14.434;2023-07-13T04:16:06;3.08;;;1.80;;
76127;SDS011;64873;50.102;14.434;2023-07-13T04:18:32;5.10;;;1.70;;
76127;SDS011;64873;50.102;14.434;2023-07-13T04:20:57;3.75;;;2.20;;
76127;SDS011;64873;50.102;14.434;2023-07-13T04:23:24;3.88;;;1.75;;
76127;SDS011;64873;50.102;14.434;2023-07-13T04:25:51;3.70;;;1.83;;
76127;SDS011;64873;50.102;14.434;2023-07-13T04:28:18;5.30;;;1.80;;
76127;SDS011;64873;50.102;14.434;2023-07-13T04:30:44;3.55;;;1.98;;
76127;SDS011;64873;50.102;14.434;2023-07-13T04:33:10;5.97;;;2.03;;
76127;SDS011;64873;50.102;14.434;2023-07-13T04:35:36;2.85;;;1.73;;
76127;SDS011;64873;50.102;14.434;2023-07-13T04:38:02;5.90;;;1.80;;
76127;SDS011;64873;50.102;14.434;2023-07-13T04:40:28;3.63;;;1.88;;
76127;SDS011;64873;50.102;14.434;2023-07-13T04:42:54;4.35;;;1.60;;
76127;SDS011;64873;50.102;14.434;2023-07-13T04:45:20;3.03;;;2.00;;
76127;SDS011;64873;50.102;14.434;2023-07-13T04:47:45;6.95;;;1.70;;
76127;SDS011;64873;50.102;14.434;2023-07-13T04:50:12;2.58;;;1.85;;
76127;SDS011;64873;50.102;14.434;2023-07-13T04:52:40;4.47;;;2.00;;
76127;SDS011;64873;50.102;14.434;2023-07-13T04:55:07;3.15;;;1.80;;
76127;SDS011;64873;50.102;14.434;2023-07-13T04:57:33;3.10;;;1.95;;
76127;SDS011;64873;50.102;14.434;2023-07-13T04:59:58;6.30;;;2.25;;
76127;SDS011;64873;50.102;14.434;2023-07-13T05:02:26;6.35;;;2.28;;
76127;SDS011;64873;50.102;14.434;2023-07-13T05:04:53;3.25;;;1.83;;
76127;SDS011;64873;50.102;14.434;2023-07-13T05:07:18;4.65;;;2.10;;
76127;SDS011;64873;50.102;14.434;2023-07-13T05:09:44;5.25;;;1.63;;
76127;SDS011;64873;50.102;14.434;2023-07-13T05:12:10;4.47;;;2.47;;
76127;SDS011;64873;50.102;14.434;2023-07-13T05:14:35;4.75;;;2.03;;
76127;SDS011;64873;50.102;14.434;2023-07-13T05:17:01;7.40;;;2.30;;
76127;SDS011;64873;50.102;14.434;2023-07-13T05:19:27;4.45;;;2.53;;
76127;SDS011;64873;50.102;14.434;2023-07-13T05:21:52;4.40;;;2.35;;
76127;SDS011;64873;50.102;14.434;2023-07-13T05:24:18;3.00;;;2.20;;
76127;SDS011;64873;50.102;14.434;2023-07-13T05:26:43;4.97;;;2.08;;
76127;SDS011;64873;50.102;14.434;2023-07-13T05:29:09;5.18;;;2.20;;
76127;SDS011;64873;50.102;14.434;2023-07-13T05:31:35;4.18;;;2.03;;
76127;SDS011;64873;50.102;14.434;2023-07-13T05:34:00;4.05;;;1.80;;
76127;SDS011;64873;50.102;14.434;2023-07-13T05:36:26;4.97;;;2.22;;
76127;SDS011;64873;50.102;14.434;2023-07-13T05:38:51;4.68;;;2.20;;
76127;SDS011;64873;50.102;14.434;2023-07-13T05:41:16;4.18;;;2.10;;
76127;SDS011;64873;50.102;14.434;2023-07-13T05:43:42;4.53;;;2.17;;
76127;SDS011;64873;50.102;14.434;2023-07-13T05:46:07;5.85;;;2.63;;
76127;SDS011;64873;50.102;14.434;2023-07-13T05:48:33;5.65;;;2.03;;
76127;SDS011;64873;50.102;14.434;2023-07-13T05:50:58;11.52;;;2.53;;
76127;SDS011;64873;50.102;14.434;2023-07-13T05:53:23;3.30;;;2.08;;
76127;SDS011;64873;50.102;14.434;2023-07-13T05:55:49;5.85;;;2.05;;
76127;SDS011;64873;50.102;14.434;2023-07-13T05:58:18;3.88;;;1.95;;
76127;SDS011;64873;50.102;14.434;2023-07-13T06:00:44;3.45;;;2.10;;
76127;SDS011;64873;50.102;14.434;2023-07-13T06:03:10;5.75;;;2.60;;
76127;SDS011;64873;50.102;14.434;2023-07-13T06:05:35;2.95;;;2.05;;
76127;SDS011;64873;50.102;14.434;2023-07-13T06:08:03;4.18;;;2.10;;
76127;SDS011;64873;50.102;14.434;2023-07-13T06:10:29;8.73;;;3.33;;
76127;SDS011;64873;50.102;14.434;2023-07-13T06:12:54;5.30;;;2.20;;
76127;SDS011;64873;50.102;14.434;2023-07-13T06:15:20;5.78;;;2.50;;
76127;SDS011;64873;50.102;14.434;2023-07-13T06:17:45;4.32;;;2.45;;
76127;SDS011;64873;50.102;14.434;2023-07-13T06:20:11;5.97;;;2.35;;
76127;SDS011;64873;50.102;14.434;2023-07-13T06:22:37;4.82;;;2.60;;
76127;SDS011;64873;50.102;14.434;2023-07-13T06:25:02;5.53;;;2.55;;
76127;SDS011;64873;50.102;14.434;2023-07-13T06:27:28;3.42;;;2.10;;
76127;SDS011;64873;50.102;14.434;2023-07-13T06:29:53;6.15;;;2.78;;
76127;SDS011;64873;50.102;14.434;2023-07-13T06:32:19;6.40;;;2.83;;
76127;SDS011;64873;50.102;14.434;2023-07-13T06:34:44;4.30;;;2.08;;
76127;SDS011;64873;50.102;14.434;2023-07-13T06:37:10;4.82;;;2.40;;
76127;SDS011;64873;50.102;14.434;2023-07-13T06:39:36;4.93;;;2.50;;
76127;SDS011;64873;50.102;14.434;2023-07-13T06:42:01;4.70;;;2.30;;
76127;SDS011;64873;50.102;14.434;2023-07-13T06:44:27;6.18;;;2.30;;
76127;SDS011;64873;50.102;14.434;2023-07-13T06:46:53;3.17;;;2.30;;
76127;SDS011;64873;50.102;14.434;2023-07-13T06:49:18;5.63;;;2.08;;
76127;SDS011;64873;50.102;14.434;2023-07-13T06:51:43;3.72;;;2.00;;
76127;SDS011;64873;50.102;14.434;2023-07-13T06:54:09;3.20;;;2.00;;
76127;SDS011;64873;50.102;14.434;2023-07-13T06:56:34;4.57;;;2.10;;
76127;SDS011;64873;50.102;14.434;2023-07-13T06:59:00;4.82;;;2.33;;
76127;SDS011;64873;50.102;14.434;2023-07-13T07:01:25;4.05;;;2.50;;
76127;SDS011;64873;50.102;14.434;2023-07-13T07:03:51;7.18;;;2.05;;
76127;SDS011;64873;50.102;14.434;2023-07-13T07:06:17;6.03;;;2.30;;
76127;SDS011;64873;50.102;14.434;2023-07-13T07:08:45;2.90;;;2.03;;
76127;SDS011;64873;50.102;14.434;2023-07-13T07:11:15;5.05;;;2.42;;
76127;SDS011;64873;50.102;14.434;2023-07-13T07:13:43;6.68;;;2.30;;
76127;SDS011;64873;50.102;14.434;2023-07-13T07:16:08;6.82;;;2.35;;
76127;SDS011;64873;50.102;14.434;2023-07-13T07:18:34;4.00;;;2.03;;
76127;SDS011;64873;50.102;14.434;2023-07-13T07:21:02;6.05;;;2.15;;
76127;SDS011;64873;50.102;14.434;2023-07-13T07:23:28;6.40;;;2.30;;
76127;SDS011;64873;50.102;14.434;2023-07-13T07:25:54;4.43;;;2.00;;
76127;SDS011;64873;50.102;14.434;2023-07-13T07:28:19;8.73;;;2.53;;
76127;SDS011;64873;50.102;14.434;2023-07-13T07:30:45;4.95;;;1.90;;
76127;SDS011;64873;50.102;14.434;2023-07-13T07:33:11;3.75;;;1.85;;
76127;SDS011;64873;50.102;14.434;2023-07-13T07:35:36;4.30;;;1.88;;
76127;SDS011;64873;50.102;14.434;2023-07-13T07:38:04;4.97;;;1.98;;
76127;SDS011;64873;50.102;14.434;2023-07-13T07:40:30;4.25;;;1.80;;
76127;SDS011;64873;50.102;14.434;2023-07-13T07:42:56;2.40;;;1.75;;
76127;SDS011;64873;50.102;14.434;2023-07-13T07:45:21;4.32;;;2.03;;
76127;SDS011;64873;50.102;14.434;2023-07-13T07:47:47;6.72;;;2.50;;
76127;SDS011;64873;50.102;14.434;2023-07-13T07:50:12;3.38;;;1.88;;
76127;SDS011;64873;50.102;14.434;2023-07-13T07:52:38;3.35;;;1.73;;
76127;SDS011;64873;50.102;14.434;2023-07-13T07:55:04;5.40;;;1.77;;
76127;SDS011;64873;50.102;14.434;2023-07-13T07:57:31;4.55;;;2.10;;
76127;SDS011;64873;50.102;14.434;2023-07-13T07:59:56;3.88;;;1.90;;
76127;SDS011;64873;50.102;14.434;2023-07-13T08:02:22;2.35;;;1.52;;
76127;SDS011;64873;50.102;14.434;2023-07-13T08:04:47;2.78;;;1.85;;
76127;SDS011;64873;50.102;14.434;2023-07-13T08:07:13;8.55;;;2.05;;
76127;SDS011;64873;50.102;14.434;2023-07-13T08:09:38;6.75;;;1.95;;
76127;SDS011;64873;50.102;14.434;2023-07-13T08:12:04;10.60;;;2.35;;
76127;SDS011;64873;50.102;14.434;2023-07-13T08:14:30;3.75;;;1.88;;
76127;SDS011;64873;50.102;14.434;2023-07-13T08:16:55;4.78;;;2.00;;
76127;SDS011;64873;50.102;14.434;2023-07-13T08:19:20;4.63;;;1.90;;
76127;SDS011;64873;50.102;14.434;2023-07-13T08:21:46;3.55;;;1.90;;
76127;SDS011;64873;50.102;14.434;2023-07-13T08:24:13;4.40;;;2.05;;
76127;SDS011;64873;50.102;14.434;2023-07-13T08:26:39;2.67;;;1.63;;
76127;SDS011;64873;50.102;14.434;2023-07-13T08:29:04;3.63;;;1.80;;
76127;SDS011;64873;50.102;14.434;2023-07-13T08:31:30;4.47;;;2.00;;
76127;SDS011;64873;50.102;14.434;2023-07-13T08:33:55;6.85;;;2.20;;
76127;SDS011;64873;50.102;14.434;2023-07-13T08:36:21;5.82;;;1.70;;
76127;SDS011;64873;50.102;14.434;2023-07-13T08:38:46;6.25;;;1.60;;
76127;SDS011;64873;50.102;14.434;2023-07-13T08:41:12;4.18;;;1.50;;
76127;SDS011;64873;50.102;14.434;2023-07-13T08:43:44;6.65;;;2.05;;
76127;SDS011;64873;50.102;14.434;2023-07-13T08:51:24;5.78;;;1.80;;
76127;SDS011;64873;50.102;14.434;2023-07-13T08:53:59;4.63;;;1.58;;
76127;SDS011;64873;50.102;14.434;2023-07-13T08:56:28;8.50;;;1.80;;
76127;SDS011;64873;50.102;14.434;2023-07-13T08:58:56;4.43;;;1.60;;
76127;SDS011;64873;50.102;14.434;2023-07-13T09:01:30;3.03;;;1.40;;
76127;SDS011;64873;50.102;14.434;2023-07-13T09:04:11;2.40;;;1.33;;
76127;SDS011;64873;50.102;14.434;2023-07-13T09:09:57;3.13;;;1.35;;
76127;SDS011;64873;50.102;14.434;2023-07-13T09:12:14;5.25;;;1.60;;
76127;SDS011;64873;50.102;14.434;2023-07-13T09:14:50;4.78;;;1.42;;
76127;SDS011;64873;50.102;14.434;2023-07-13T09:17:23;4.57;;;1.40;;
76127;SDS011;64873;50.102;14.434;2023-07-13T09:19:59;3.28;;;1.48;;
76127;SDS011;64873;50.102;14.434;2023-07-13T09:22:36;4.95;;;1.20;;
76127;SDS011;64873;50.102;14.434;2023-07-13T09:25:13;2.88;;;1.33;;
76127;SDS011;64873;50.102;14.434;2023-07-13T09:27:55;4.70;;;1.40;;
76127;SDS011;64873;50.102;14.434;2023-07-13T09:30:40;1.60;;;1.08;;
76127;SDS011;64873;50.102;14.434;2023-07-13T09:33:12;3.90;;;1.30;;
76127;SDS011;64873;50.102;14.434;2023-07-13T09:35:39;3.75;;;1.20;;
76127;SDS011;64873;50.102;14.434;2023-07-13T09:38:15;3.15;;;1.27;;
76127;SDS011;64873;50.102;14.434;2023-07-13T09:40:57;3.30;;;1.48;;
76127;SDS011;64873;50.102;14.434;2023-07-13T09:46:34;4.53;;;1.42;;
76127;SDS011;64873;50.102;14.434;2023-07-13T09:48:59;3.55;;;1.55;;
76127;SDS011;64873;50.102;14.434;2023-07-13T09:51:25;2.13;;;1.10;;
76127;SDS011;64873;50.102;14.434;2023-07-13T09:53:50;3.20;;;1.40;;
76127;SDS011;64873;50.102;14.434;2023-07-13T09:56:22;4.18;;;1.48;;
76127;SDS011;64873;50.102;14.434;2023-07-13T09:58:51;3.22;;;1.30;;
76127;SDS011;64873;50.102;14.434;2023-07-13T10:01:16;3.83;;;1.33;;
76127;SDS011;64873;50.102;14.434;2023-07-13T10:03:57;2.15;;;1.13;;
76127;SDS011;64873;50.102;14.434;2023-07-13T10:06:23;1.90;;;1.13;;
76127;SDS011;64873;50.102;14.434;2023-07-13T10:08:51;3.28;;;1.40;;
76127;SDS011;64873;50.102;14.434;2023-07-13T10:11:19;1.65;;;1.00;;
76127;SDS011;64873;50.102;14.434;2023-07-13T10:13:50;3.28;;;1.00;;
76127;SDS011;64873;50.102;14.434;2023-07-13T10:16:20;3.20;;;1.35;;
76127;SDS011;64873;50.102;14.434;2023-07-13T10:18:48;4.53;;;1.40;;
76127;SDS011;64873;50.102;14.434;2023-07-13T10:21:19;2.58;;;1.38;;
76127;SDS011;64873;50.102;14.434;2023-07-13T10:23:48;2.22;;;1.10;;
76127;SDS011;64873;50.102;14.434;2023-07-13T10:28:49;3.03;;;1.33;;
76127;SDS011;64873;50.102;14.434;2023-07-13T10:31:20;4.45;;;1.83;;
76127;SDS011;64873;50.102;14.434;2023-07-13T10:33:46;3.03;;;1.40;;
76127;SDS011;64873;50.102;14.434;2023-07-13T10:38:56;3.60;;;1.20;;
76127;SDS011;64873;50.102;14.434;2023-07-13T10:41:24;4.82;;;1.33;;
76127;SDS011;64873;50.102;14.434;2023-07-13T10:43:53;4.03;;;1.30;;
76127;SDS011;64873;50.102;14.434;2023-07-13T10:46:22;2.88;;;1.10;;
76127;SDS011;64873;50.102;14.434;2023-07-13T10:48:55;3.97;;;1.25;;
76127;SDS011;64873;50.102;14.434;2023-07-13T10:51:27;2.35;;;1.13;;
76127;SDS011;64873;50.102;14.434;2023-07-13T10:56:49;4.00;;;1.30;;
76127;SDS011;64873;50.102;14.434;2023-07-13T10:59:32;3.00;;;1.40;;
76127;SDS011;64873;50.102;14.434;2023-07-13T11:04:41;3.22;;;1.20;;
76127;SDS011;64873;50.102;14.434;2023-07-13T11:07:11;6.45;;;1.42;;
76127;SDS011;64873;50.102;14.434;2023-07-13T11:09:46;3.42;;;1.55;;
76127;SDS011;64873;50.102;14.434;2023-07-13T11:20:08;3.63;;;1.40;;
76127;SDS011;64873;50.102;14.434;2023-07-13T11:22:45;3.08;;;1.27;;
76127;SDS011;64873;50.102;14.434;2023-07-13T11:25:30;5.15;;;1.40;;
76127;SDS011;64873;50.102;14.434;2023-07-13T11:28:06;3.50;;;1.20;;
76127;SDS011;64873;50.102;14.434;2023-07-13T11:30:37;3.70;;;1.50;;
76127;SDS011;64873;50.102;14.434;2023-07-13T11:33:15;5.47;;;1.42;;
76127;SDS011;64873;50.102;14.434;2023-07-13T11:35:53;3.05;;;1.30;;
76127;SDS011;64873;50.102;14.434;2023-07-13T11:38:28;3.08;;;1.52;;
76127;SDS011;64873;50.102;14.434;2023-07-13T11:40:58;3.67;;;1.23;;
76127;SDS011;64873;50.102;14.434;2023-07-13T11:43:28;2.80;;;1.25;;
76127;SDS011;64873;50.102;14.434;2023-07-13T11:45:54;2.50;;;1.27;;
76127;SDS011;64873;50.102;14.434;2023-07-13T11:48:20;3.95;;;1.50;;
76127;SDS011;64873;50.102;14.434;2023-07-13T11:50:53;3.67;;;1.40;;
76127;SDS011;64873;50.102;14.434;2023-07-13T11:53:28;2.72;;;1.38;;
76127;SDS011;64873;50.102;14.434;2023-07-13T11:55:59;4.93;;;1.48;;
76127;SDS011;64873;50.102;14.434;2023-07-13T11:58:25;2.20;;;1.20;;
76127;SDS011;64873;50.102;14.434;2023-07-13T12:00:53;4.45;;;1.30;;
76127;SDS011;64873;50.102;14.434;2023-07-13T12:03:23;5.88;;;1.65;;
76127;SDS011;64873;50.102;14.434;2023-07-13T12:06:04;3.38;;;1.13;;
76127;SDS011;64873;50.102;14.434;2023-07-13T12:08:31;2.28;;;1.05;;
76127;SDS011;64873;50.102;14.434;2023-07-13T12:11:05;4.72;;;1.30;;
76127;SDS011;64873;50.102;14.434;2023-07-13T12:13:40;2.80;;;1.40;;
76127;SDS011;64873;50.102;14.434;2023-07-13T12:19:00;2.47;;;1.30;;
76127;SDS011;64873;50.102;14.434;2023-07-13T12:21:37;2.88;;;1.27;;
76127;SDS011;64873;50.102;14.434;2023-07-13T12:24:04;3.35;;;1.52;;
76127;SDS011;64873;50.102;14.434;2023-07-13T12:26:39;5.88;;;1.40;;
76127;SDS011;64873;50.102;14.434;2023-07-13T12:29:05;3.67;;;1.40;;
76127;SDS011;64873;50.102;14.434;2023-07-13T12:31:34;4.97;;;1.60;;
76127;SDS011;64873;50.102;14.434;2023-07-13T12:34:01;6.00;;;1.73;;
76127;SDS011;64873;50.102;14.434;2023-07-13T12:36:38;2.53;;;1.25;;
76127;SDS011;64873;50.102;14.434;2023-07-13T12:39:14;3.40;;;1.50;;
76127;SDS011;64873;50.102;14.434;2023-07-13T12:41:42;2.83;;;1.30;;
76127;SDS011;64873;50.102;14.434;2023-07-13T12:44:10;3.95;;;1.30;;
76127;SDS011;64873;50.102;14.434;2023-07-13T12:46:37;4.68;;;1.50;;
76127;SDS011;64873;50.102;14.434;2023-07-13T12:49:05;6.95;;;1.88;;
76127;SDS011;64873;50.102;14.434;2023-07-13T12:51:32;5.80;;;1.70;;
76127;SDS011;64873;50.102;14.434;2023-07-13T12:54:08;7.60;;;1.65;;
76127;SDS011;64873;50.102;14.434;2023-07-13T12:56:40;8.18;;;1.60;;
76127;SDS011;64873;50.102;14.434;2023-07-13T12:59:05;5.50;;;1.67;;
76127;SDS011;64873;50.102;14.434;2023-07-13T13:01:40;3.03;;;1.50;;
76127;SDS011;64873;50.102;14.434;2023-07-13T13:04:08;6.97;;;1.63;;
76127;SDS011;64873;50.102;14.434;2023-07-13T13:06:36;5.35;;;1.20;;
76127;SDS011;64873;50.102;14.434;2023-07-13T13:09:02;3.92;;;1.40;;
76127;SDS011;64873;50.102;14.434;2023-07-13T13:11:29;3.38;;;1.50;;
76127;SDS011;64873;50.102;14.434;2023-07-13T13:13:56;4.00;;;1.30;;
76127;SDS011;64873;50.102;14.434;2023-07-13T13:16:34;4.45;;;1.42;;
76127;SDS011;64873;50.102;14.434;2023-07-13T13:19:13;8.23;;;2.25;;
76127;SDS011;64873;50.102;14.434;2023-07-13T13:21:41;3.67;;;1.60;;
76127;SDS011;64873;50.102;14.434;2023-07-13T13:24:12;12.57;;;2.92;;
76127;SDS011;64873;50.102;14.434;2023-07-13T13:26:40;16.92;;;5.18;;
76127;SDS011;64873;50.102;14.434;2023-07-13T13:29:13;16.08;;;4.18;;
76127;SDS011;64873;50.102;14.434;2023-07-13T13:31:41;6.57;;;2.30;;
76127;SDS011;64873;50.102;14.434;2023-07-13T13:34:08;6.05;;;1.30;;
76127;SDS011;64873;50.102;14.434;2023-07-13T13:36:38;11.93;;;1.30;;
76127;SDS011;64873;50.102;14.434;2023-07-13T13:39:05;5.72;;;1.30;;
76127;SDS011;64873;50.102;14.434;2023-07-13T13:41:51;1.65;;;1.20;;
76127;SDS011;64873;50.102;14.434;2023-07-13T13:44:18;9.77;;;1.20;;
76127;SDS011;64873;50.102;14.434;2023-07-13T13:46:45;3.17;;;1.40;;
76127;SDS011;64873;50.102;14.434;2023-07-13T13:49:13;4.07;;;1.60;;
76127;SDS011;64873;50.102;14.434;2023-07-13T13:51:41;1.70;;;1.10;;
76127;SDS011;64873;50.102;14.434;2023-07-13T13:54:10;2.90;;;1.23;;
76127;SDS011;64873;50.102;14.434;2023-07-13T13:56:36;4.88;;;1.65;;
76127;SDS011;64873;50.102;14.434;2023-07-13T13:59:02;7.65;;;1.80;;
76127;SDS011;64873;50.102;14.434;2023-07-13T14:01:28;13.32;;;1.70;;
76127;SDS011;64873;50.102;14.434;2023-07-13T14:03:55;3.42;;;1.50;;
76127;SDS011;64873;50.102;14.434;2023-07-13T14:06:21;6.20;;;1.50;;
76127;SDS011;64873;50.102;14.434;2023-07-13T14:08:46;4.50;;;1.25;;
76127;SDS011;64873;50.102;14.434;2023-07-13T14:11:16;3.08;;;1.20;;
76127;SDS011;64873;50.102;14.434;2023-07-13T14:13:51;3.75;;;1.58;;
76127;SDS011;64873;50.102;14.434;2023-07-13T14:16:20;2.72;;;1.35;;
76127;SDS011;64873;50.102;14.434;2023-07-13T14:18:47;2.55;;;1.20;;
76127;SDS011;64873;50.102;14.434;2023-07-13T14:21:15;5.85;;;1.67;;
76127;SDS011;64873;50.102;14.434;2023-07-13T14:23:43;3.13;;;1.35;;
76127;SDS011;64873;50.102;14.434;2023-07-13T14:26:14;2.50;;;1.27;;
76127;SDS011;64873;50.102;14.434;2023-07-13T14:28:42;2.85;;;1.35;;
76127;SDS011;64873;50.102;14.434;2023-07-13T14:31:10;2.97;;;1.48;;
76127;SDS011;64873;50.102;14.434;2023-07-13T14:33:37;2.20;;;1.30;;
76127;SDS011;64873;50.102;14.434;2023-07-13T14:36:03;4.35;;;1.50;;
76127;SDS011;64873;50.102;14.434;2023-07-13T14:39:00;4.30;;;1.20;;
76127;SDS011;64873;50.102;14.434;2023-07-13T14:41:36;5.82;;;1.45;;
76127;SDS011;64873;50.102;14.434;2023-07-13T14:44:01;4.55;;;1.40;;
76127;SDS011;64873;50.102;14.434;2023-07-13T14:46:28;3.88;;;1.45;;
76127;SDS011;64873;50.102;14.434;2023-07-13T14:49:38;3.20;;;1.45;;
76127;SDS011;64873;50.102;14.434;2023-07-13T14:52:10;3.83;;;1.60;;
76127;SDS011;64873;50.102;14.434;2023-07-13T14:54:35;3.22;;;2.00;;
76127;SDS011;64873;50.102;14.434;2023-07-13T14:57:08;3.03;;;1.25;;
76127;SDS011;64873;50.102;14.434;2023-07-13T14:59:44;3.00;;;1.42;;
76127;SDS011;64873;50.102;14.434;2023-07-13T15:04:43;2.85;;;1.40;;
76127;SDS011;64873;50.102;14.434;2023-07-13T15:07:09;5.55;;;1.80;;
76127;SDS011;64873;50.102;14.434;2023-07-13T15:09:36;3.63;;;1.38;;
76127;SDS011;64873;50.102;14.434;2023-07-13T15:12:01;4.13;;;1.50;;
76127;SDS011;64873;50.102;14.434;2023-07-13T15:14:27;4.65;;;2.75;;
76127;SDS011;64873;50.102;14.434;2023-07-13T15:16:54;3.72;;;1.60;;
76127;SDS011;64873;50.102;14.434;2023-07-13T15:19:20;4.45;;;1.38;;